Time;durP1;ratioP1;P1;durP2;ratioP2;P2;SDS_P1;SDS_P2;PMS_P1;PMS_P2;Temp;Humidity;BMP_temperature;BMP_pressure;BME280_temperature;BME280_humidity;BME280_pressure;Samples;Min_cycle;Max_cycle;Signal;HPM_P1;HPM_P2
2024/02/11 00:01:13;;;;;;;3.28;1.65;;;8.50;99.90;;;;;;4946190;28;20480;-82
2024/02/11 00:03:39;;;;;;;5.75;2.90;;;8.50;99.90;;;;;;4931178;29;20045;-82
2024/02/11 00:06:06;;;;;;;3.80;2.70;;;8.50;99.90;;;;;;4939036;28;20058;-82
2024/02/11 00:08:33;;;;;;;2.70;2.50;;;8.50;99.90;;;;;;4935132;29;20567;-82
2024/02/11 00:10:59;;;;;;;3.45;2.97;;;8.50;99.90;;;;;;4941778;29;20058;-83
2024/02/11 00:13:25;;;;;;;3.00;2.80;;;8.50;99.90;;;;;;4909004;29;20043;-83
2024/02/11 00:15:52;;;;;;;3.22;2.28;;;8.50;99.90;;;;;;4933054;29;20044;-82
2024/02/11 00:18:19;;;;;;;3.38;2.28;;;8.50;99.90;;;;;;4926178;29;20473;-82
2024/02/11 00:20:45;;;;;;;2.15;1.52;;;8.60;99.90;;;;;;4945877;28;20477;-82
2024/02/11 00:23:12;;;;;;;1.48;1.38;;;8.50;99.90;;;;;;4943614;29;20042;-82
2024/02/11 00:25:39;;;;;;;8.82;4.50;;;8.60;99.90;;;;;;4933855;29;20039;-82
2024/02/11 00:28:08;;;;;;;5.65;2.42;;;8.50;99.90;;;;;;4933438;29;20043;-82
2024/02/11 00:30:37;;;;;;;3.05;2.85;;;8.60;99.90;;;;;;4932687;29;20043;-82
2024/02/11 00:33:05;;;;;;;7.03;2.03;;;8.60;99.90;;;;;;4946253;29;20046;-83
2024/02/11 00:35:31;;;;;;;2.63;2.42;;;8.60;99.90;;;;;;4932796;29;20043;-82
2024/02/11 00:37:58;;;;;;;3.70;3.40;;;8.60;99.90;;;;;;4910054;29;20043;-82
2024/02/11 00:40:25;;;;;;;3.28;2.97;;;8.60;99.90;;;;;;4922290;29;20050;-83
2024/02/11 00:42:51;;;;;;;4.47;2.45;;;8.60;99.90;;;;;;4923993;29;20478;-83
2024/02/11 00:45:17;;;;;;;3.08;2.88;;;8.60;99.90;;;;;;4933223;29;20058;-81
2024/02/11 00:47:47;;;;;;;5.78;3.42;;;8.50;99.90;;;;;;4933025;29;20051;-83
2024/02/11 00:50:13;;;;;;;3.95;2.42;;;8.60;99.90;;;;;;4934170;29;20035;-82
2024/02/11 00:52:41;;;;;;;3.78;3.15;;;8.60;99.90;;;;;;4932965;29;20055;-82
2024/02/11 00:55:14;;;;;;;3.85;3.33;;;8.60;99.90;;;;;;4942894;28;20048;-83
2024/02/11 00:57:41;;;;;;;3.55;1.85;;;8.60;99.90;;;;;;4924762;29;20043;-83
2024/02/11 01:00:11;;;;;;;5.53;2.92;;;8.60;99.90;;;;;;4935786;29;20107;-82
2024/02/11 01:02:38;;;;;;;5.55;4.22;;;8.70;99.90;;;;;;4950207;29;20043;-86
2024/02/11 01:05:05;;;;;;;2.95;2.75;;;8.60;99.90;;;;;;4914560;29;20047;-82
2024/02/11 01:07:40;;;;;;;1.88;1.65;;;8.60;99.90;;;;;;4909716;29;20055;-82
2024/02/11 01:10:14;;;;;;;2.35;2.00;;;8.60;99.90;;;;;;4932843;29;20474;-82
2024/02/11 01:12:42;;;;;;;1.55;1.45;;;8.60;99.90;;;;;;4937165;29;20052;-83
2024/02/11 01:15:13;;;;;;;2.25;1.63;;;8.60;99.90;;;;;;4913181;29;20051;-83
2024/02/11 01:17:40;;;;;;;3.28;2.47;;;8.60;99.90;;;;;;4914779;29;20062;-83
2024/02/11 01:20:13;;;;;;;3.42;3.20;;;8.60;99.90;;;;;;4919273;29;20036;-82
2024/02/11 01:22:46;;;;;;;3.17;2.88;;;8.50;99.90;;;;;;4906192;29;20048;-85
2024/02/11 01:25:20;;;;;;;3.20;2.60;;;8.60;99.90;;;;;;4929834;29;20040;-82
2024/02/11 01:27:49;;;;;;;3.78;2.35;;;8.60;99.90;;;;;;4919535;29;20044;-83
2024/02/11 01:30:20;;;;;;;2.53;1.60;;;8.60;99.90;;;;;;4908478;29;20044;-84
2024/02/11 01:32:48;;;;;;;1.63;1.52;;;8.60;99.90;;;;;;4911026;29;20060;-83
2024/02/11 01:35:14;;;;;;;2.08;1.83;;;8.60;99.90;;;;;;4910240;29;20044;-82
2024/02/11 01:37:41;;;;;;;22.33;4.15;;;8.60;99.90;;;;;;4912311;29;20106;-82
2024/02/11 01:40:15;;;;;;;2.15;1.95;;;8.70;99.90;;;;;;4910852;29;20044;-82
2024/02/11 01:42:45;;;;;;;2.65;1.10;;;8.70;99.90;;;;;;4916656;29;20044;-83
2024/02/11 01:45:13;;;;;;;6.25;3.55;;;8.70;99.90;;;;;;4910424;29;20130;-82
2024/02/11 01:47:43;;;;;;;2.05;1.88;;;8.60;99.90;;;;;;4926709;29;20053;-84
2024/02/11 01:50:14;;;;;;;2.53;2.33;;;8.70;99.90;;;;;;4893272;29;20044;-82
2024/02/11 01:52:40;;;;;;;;;;;8.60;99.90;;;;;;4914027;29;20499;-85
2024/02/11 01:55:10;;;;;;;2.92;1.63;;;8.60;99.90;;;;;;4893727;29;19910;-82
2024/02/11 01:57:37;;;;;;;6.68;2.25;;;8.70;99.90;;;;;;4901016;29;20047;-82
2024/02/11 02:00:05;;;;;;;2.85;2.60;;;8.70;99.90;;;;;;4898697;29;20138;-83
2024/02/11 02:02:32;;;;;;;3.85;2.72;;;8.70;99.90;;;;;;4897496;29;20048;-83
2024/02/11 02:04:59;;;;;;;1.77;1.63;;;8.70;99.90;;;;;;4915472;29;20039;-82
2024/02/11 02:07:25;;;;;;;4.15;3.53;;;8.80;99.90;;;;;;4923915;29;20052;-81
2024/02/11 02:09:55;;;;;;;5.28;3.30;;;8.80;99.90;;;;;;4914170;29;20039;-83
2024/02/11 02:12:22;;;;;;;2.42;1.85;;;8.90;99.90;;;;;;4922208;29;20068;-82
2024/02/11 02:14:49;;;;;;;4.03;3.50;;;8.90;99.90;;;;;;4916384;29;20044;-83
2024/02/11 02:17:16;;;;;;;6.38;3.25;;;8.90;99.90;;;;;;4910216;29;20039;-82
2024/02/11 02:19:42;;;;;;;2.85;2.38;;;8.90;99.90;;;;;;4905525;29;20385;-85
2024/02/11 02:22:08;;;;;;;6.88;2.80;;;8.90;99.90;;;;;;4913222;29;20036;-82
2024/02/11 02:24:35;;;;;;;2.35;2.13;;;8.90;99.90;;;;;;4910859;29;20044;-82
2024/02/11 02:27:01;;;;;;;4.10;3.20;;;8.90;99.90;;;;;;4914870;29;20056;-82
2024/02/11 02:29:27;;;;;;;2.50;2.35;;;8.90;99.90;;;;;;4929933;29;20465;-82
2024/02/11 02:31:53;;;;;;;3.35;2.10;;;8.90;99.90;;;;;;4891283;29;20469;-83
2024/02/11 02:34:19;;;;;;;2.33;2.05;;;8.90;99.90;;;;;;4905005;29;20036;-82
2024/02/11 02:36:48;;;;;;;2.60;2.40;;;8.80;99.90;;;;;;4915769;29;20040;-82
2024/02/11 02:39:14;;;;;;;2.65;2.33;;;8.80;99.90;;;;;;4931108;29;20040;-83
2024/02/11 02:41:40;;;;;;;5.68;3.72;;;8.80;99.90;;;;;;4929932;29;20032;-82
2024/02/11 02:44:06;;;;;;;1.55;1.45;;;8.80;99.90;;;;;;4912959;29;20040;-82
2024/02/11 02:46:33;;;;;;;4.57;3.08;;;8.90;99.90;;;;;;4911888;29;20055;-83
2024/02/11 02:48:59;;;;;;;1.95;1.85;;;8.80;99.90;;;;;;4909562;29;20048;-82
2024/02/11 02:51:25;;;;;;;4.88;2.88;;;8.80;99.90;;;;;;4899707;29;20044;-82
2024/02/11 02:53:51;;;;;;;4.43;2.90;;;8.80;99.90;;;;;;4928726;29;20051;-83
2024/02/11 02:56:18;;;;;;;1.92;1.67;;;8.80;99.90;;;;;;4920714;29;20161;-82
2024/02/11 02:58:45;;;;;;;2.28;2.08;;;8.80;99.90;;;;;;4912122;29;20032;-86
2024/02/11 03:01:19;;;;;;;1.98;1.67;;;8.80;99.90;;;;;;4923246;29;20040;-82
2024/02/11 03:03:48;;;;;;;1.58;1.48;;;8.90;99.90;;;;;;4928262;29;20036;-84
2024/02/11 03:06:15;;;;;;;2.85;2.42;;;8.90;99.90;;;;;;4909923;29;20036;-82
2024/02/11 03:08:41;;;;;;;1.90;1.73;;;9.00;99.90;;;;;;4918329;29;20739;-82
2024/02/11 03:11:07;;;;;;;1.88;1.77;;;9.00;99.90;;;;;;4922677;29;20477;-82
2024/02/11 03:13:33;;;;;;;4.80;2.60;;;9.10;99.90;;;;;;4930031;29;20039;-82
2024/02/11 03:16:00;;;;;;;0.68;0.68;;;9.10;99.90;;;;;;4898741;29;20052;-80
2024/02/11 03:18:26;;;;;;;1.27;1.17;;;9.00;99.90;;;;;;4904286;29;20036;-81
2024/02/11 03:20:52;;;;;;;0.55;0.55;;;9.00;99.90;;;;;;4893242;29;20043;-79
2024/02/11 03:23:18;;;;;;;0.10;0.10;;;8.90;1.00;;;;;;4932049;29;20036;-81
2024/02/11 03:25:44;;;;;;;0.10;0.10;;;8.90;99.90;;;;;;4915325;29;20035;-80
2024/02/11 03:28:13;;;;;;;0.10;0.10;;;8.90;99.90;;;;;;4904888;29;20048;-80
2024/02/11 03:30:39;;;;;;;0.10;0.10;;;8.90;99.90;;;;;;4910606;29;20066;-80
2024/02/11 03:33:05;;;;;;;0.10;0.10;;;8.80;99.90;;;;;;4917369;29;20039;-79
2024/02/11 03:35:31;;;;;;;0.10;0.10;;;8.70;99.90;;;;;;4929166;29;20040;-80
2024/02/11 03:37:57;;;;;;;0.10;0.10;;;8.70;99.90;;;;;;4923386;29;20035;-79
2024/02/11 03:40:24;;;;;;;0.10;0.10;;;8.60;99.90;;;;;;4919477;29;20032;-78
2024/02/11 03:42:50;;;;;;;0.20;0.20;;;8.60;99.90;;;;;;4909164;29;20046;-79
2024/02/11 03:45:18;;;;;;;0.20;0.20;;;8.60;99.90;;;;;;4901625;29;20048;-79
2024/02/11 03:47:47;;;;;;;0.10;0.10;;;8.60;99.90;;;;;;4909073;29;20059;-79
2024/02/11 03:50:15;;;;;;;0.20;0.20;;;8.60;74.80;;;;;;4929213;29;20265;-78
2024/02/11 03:52:41;;;;;;;0.20;0.20;;;8.60;92.40;;;;;;4916987;29;20031;-79
2024/02/11 03:55:10;;;;;;;0.10;0.10;;;8.60;80.80;;;;;;4931123;29;20425;-79
2024/02/11 03:57:40;;;;;;;0.20;0.20;;;8.50;66.90;;;;;;4916574;29;20052;-80
2024/02/11 04:00:13;;;;;;;0.08;0.08;;;8.50;56.70;;;;;;4928339;29;20036;-79
2024/02/11 04:02:39;;;;;;;0.25;0.25;;;8.50;61.30;;;;;;4916766;29;20394;-79
2024/02/11 04:05:06;;;;;;;0.10;0.10;;;8.40;41.40;;;;;;4915504;29;20036;-80
2024/02/11 04:07:32;;;;;;;0.20;0.20;;;8.40;62.10;;;;;;4929498;29;20039;-79
2024/02/11 04:10:17;;;;;;;0.40;0.40;;;8.40;99.90;;;;;;4922121;29;20039;-79
2024/02/11 04:12:43;;;;;;;0.10;0.10;;;8.40;88.80;;;;;;4918326;29;20048;-78
2024/02/11 04:15:09;;;;;;;0.70;0.57;;;8.40;65.40;;;;;;4932038;29;20047;-79
2024/02/11 04:17:40;;;;;;;0.15;0.15;;;8.30;57.50;;;;;;4920276;29;20481;-80
2024/02/11 04:20:14;;;;;;;;;;;8.30;81.90;;;;;;4945452;29;20051;-80
2024/02/11 04:22:45;;;;;;;0.10;0.10;;;8.30;95.50;;;;;;4941687;29;19915;-77
2024/02/11 04:25:14;;;;;;;0.10;0.10;;;8.30;63.00;;;;;;4935748;29;20400;-80
2024/02/11 04:27:40;;;;;;;0.10;0.10;;;8.20;97.40;;;;;;4935586;29;20051;-79
2024/02/11 04:30:12;;;;;;;0.10;0.10;;;8.20;99.90;;;;;;4919065;29;20590;-77
2024/02/11 04:32:42;;;;;;;0.10;0.10;;;8.20;95.10;;;;;;4942823;29;20039;-77
2024/02/11 04:35:12;;;;;;;0.20;0.20;;;8.10;97.10;;;;;;4951510;29;20031;-78
2024/02/11 04:37:49;;;;;;;0.10;0.10;;;8.10;99.90;;;;;;4951231;28;20035;-78
2024/02/11 04:40:19;;;;;;;0.20;0.20;;;8.10;99.90;;;;;;4943887;29;20046;-77
2024/02/11 04:42:47;;;;;;;0.50;0.47;;;8.10;99.90;;;;;;4941423;29;20062;-79
2024/02/11 04:45:17;;;;;;;0.32;0.32;;;8.00;99.90;;;;;;4936369;29;20395;-77
2024/02/11 04:47:45;;;;;;;0.70;0.32;;;7.90;99.90;;;;;;4930755;29;20054;-78
2024/02/11 04:50:15;;;;;;;0.65;0.65;;;7.90;99.90;;;;;;4946361;29;20054;-77
2024/02/11 04:52:55;;;;;;;0.10;0.10;;;7.90;99.90;;;;;;4927882;29;20474;-77
2024/02/11 04:55:24;;;;;;;0.45;0.45;;;7.90;99.90;;;;;;4916264;29;20051;-77
2024/02/11 04:57:51;;;;;;;0.75;0.75;;;7.90;99.90;;;;;;4941848;29;20043;-77
2024/02/11 05:00:23;;;;;;;0.20;0.20;;;7.80;99.90;;;;;;4932472;29;20070;-77
2024/02/11 05:02:55;;;;;;;0.88;0.70;;;7.80;99.90;;;;;;4934781;29;20044;-78
2024/02/11 05:05:27;;;;;;;0.10;0.10;;;7.80;99.90;;;;;;4940548;29;20051;-77
2024/02/11 05:08:07;;;;;;;18.52;0.90;;;7.70;99.90;;;;;;4939862;29;20039;-80
2024/02/11 05:10:36;;;;;;;0.45;0.45;;;7.70;99.90;;;;;;4946855;29;20035;-78
2024/02/11 05:13:08;;;;;;;0.10;0.10;;;7.70;99.90;;;;;;4923734;29;20043;-77
2024/02/11 05:15:34;;;;;;;;;;;7.70;99.90;;;;;;4915317;29;20047;-77
2024/02/11 05:18:01;;;;;;;2.10;0.77;;;7.70;99.90;;;;;;4918585;29;19911;-77
2024/02/11 05:20:28;;;;;;;0.20;0.20;;;7.60;99.90;;;;;;4901320;29;20043;-78
2024/02/11 05:22:59;;;;;;;0.10;0.10;;;7.60;99.90;;;;;;4905193;29;20047;-80
2024/02/11 05:25:26;;;;;;;0.47;0.47;;;7.60;1.00;;;;;;4892234;29;20059;-77
2024/02/11 05:27:58;;;;;;;0.20;0.20;;;7.60;1.00;;;;;;4920864;29;20424;-77
2024/02/11 05:30:33;;;;;;;0.38;0.38;;;7.50;1.00;;;;;;4931794;29;20047;-76
2024/02/11 05:33:02;;;;;;;1.17;0.77;;;7.50;1.00;;;;;;4922821;29;20036;-76
2024/02/11 05:35:28;;;;;;;2.35;0.70;;;7.50;1.00;;;;;;4915118;29;20496;-76
2024/02/11 05:37:58;;;;;;;0.32;0.28;;;7.40;1.00;;;;;;4918881;29;20036;-77
2024/02/11 05:40:29;;;;;;;0.13;0.13;;;7.40;1.00;;;;;;4912394;29;20036;-76
2024/02/11 05:42:56;;;;;;;0.85;0.85;;;7.50;1.70;;;;;;4901903;29;20039;-77
2024/02/11 05:45:23;;;;;;;0.93;0.93;;;7.40;17.10;;;;;;4923474;29;20040;-77
2024/02/11 05:47:51;;;;;;;0.55;0.55;;;7.40;32.90;;;;;;4916042;29;20047;-76
2024/02/11 05:50:17;;;;;;;0.75;0.73;;;7.40;52.50;;;;;;4931659;29;20040;-77
2024/02/11 05:52:44;;;;;;;1.02;0.95;;;7.40;61.80;;;;;;4916590;29;20051;-76
2024/02/11 05:55:12;;;;;;;0.50;0.50;;;7.30;45.90;;;;;;4927106;29;20043;-77
2024/02/11 05:57:41;;;;;;;2.35;1.75;;;7.30;43.00;;;;;;4912026;29;20044;-76
2024/02/11 06:00:12;;;;;;;3.38;2.45;;;7.30;79.40;;;;;;4917559;29;20036;-76
2024/02/11 06:02:48;;;;;;;1.40;0.80;;;7.30;75.50;;;;;;4930399;29;20044;-77
2024/02/11 06:05:16;;;;;;;1.33;0.52;;;7.20;84.90;;;;;;4927752;29;20038;-76
2024/02/11 06:07:56;;;;;;;0.30;0.30;;;7.20;89.20;;;;;;4905645;29;20040;-77
2024/02/11 06:10:26;;;;;;;1.75;1.65;;;7.20;99.90;;;;;;4920877;29;20051;-76
2024/02/11 06:12:53;;;;;;;0.73;0.73;;;7.20;99.90;;;;;;4922679;29;20059;-77
2024/02/11 06:15:20;;;;;;;1.17;0.77;;;7.20;99.90;;;;;;4931024;29;20496;-76
2024/02/11 06:17:51;;;;;;;0.73;0.68;;;7.20;99.90;;;;;;4927895;29;20050;-77
2024/02/11 06:20:21;;;;;;;0.88;0.88;;;7.20;99.90;;;;;;4900947;29;20044;-77
2024/02/11 06:22:52;;;;;;;3.13;0.90;;;7.10;99.90;;;;;;4923938;29;20039;-78
2024/02/11 06:25:20;;;;;;;1.08;0.57;;;7.10;99.90;;;;;;4918462;29;20040;-77
2024/02/11 06:27:50;;;;;;;0.47;0.47;;;7.10;99.90;;;;;;4928905;29;20036;-77
2024/02/11 06:30:17;;;;;;;0.70;0.70;;;7.10;99.90;;;;;;4916698;29;20040;-77
2024/02/11 06:32:49;;;;;;;0.10;0.10;;;7.10;99.90;;;;;;4920356;29;20036;-77
2024/02/11 06:35:16;;;;;;;0.43;0.43;;;7.10;99.90;;;;;;4918182;29;20036;-77
2024/02/11 06:37:43;;;;;;;1.17;0.90;;;7.10;99.90;;;;;;4930447;29;20043;-76
2024/02/11 06:40:15;;;;;;;0.57;0.50;;;7.10;99.90;;;;;;4926277;29;20039;-77
2024/02/11 06:42:50;;;;;;;1.50;1.23;;;7.10;99.90;;;;;;4916140;29;20043;-77
2024/02/11 06:45:17;;;;;;;1.52;1.42;;;7.00;99.90;;;;;;4918246;29;20496;-76
2024/02/11 06:47:44;;;;;;;0.10;0.10;;;7.00;99.90;;;;;;4918235;29;20422;-76
2024/02/11 06:50:14;;;;;;;1.25;1.23;;;7.00;99.90;;;;;;4909639;29;20044;-76
2024/02/11 06:52:42;;;;;;;1.65;1.30;;;7.10;87.30;;;;;;4923026;29;20100;-77
2024/02/11 06:55:15;;;;;;;1.00;0.90;;;7.00;64.40;;;;;;4923507;29;20039;-76
2024/02/11 06:57:42;;;;;;;0.20;0.20;;;7.00;60.00;;;;;;4918681;29;20048;-77
2024/02/11 07:00:09;;;;;;;0.85;0.85;;;7.00;49.80;;;;;;4925987;29;20028;-77
2024/02/11 07:02:36;;;;;;;6.22;0.75;;;7.00;49.10;;;;;;4924317;29;20047;-77
2024/02/11 07:05:05;;;;;;;1.38;0.68;;;7.00;44.20;;;;;;4919039;29;20393;-77
2024/02/11 07:07:33;;;;;;;0.90;0.85;;;7.00;23.90;;;;;;4898368;29;20066;-77
2024/02/11 07:10:00;;;;;;;0.38;0.38;;;7.00;12.00;;;;;;4916923;29;20431;-79
2024/02/11 07:12:26;;;;;;;1.35;1.23;;;7.00;1.20;;;;;;4933343;29;20040;-77
2024/02/11 07:14:52;;;;;;;0.82;0.82;;;7.00;1.00;;;;;;4934560;29;20063;-77
2024/02/11 07:17:19;;;;;;;0.82;0.82;;;7.00;5.30;;;;;;4943618;29;20039;-77
2024/02/11 07:19:48;;;;;;;0.20;0.20;;;7.00;1.00;;;;;;4936881;29;20036;-76
2024/02/11 07:22:14;;;;;;;0.63;0.63;;;7.10;2.90;;;;;;4944622;29;20043;-76
2024/02/11 07:24:43;;;;;;;1.45;1.35;;;7.10;1.00;;;;;;4928698;29;20035;-76
2024/02/11 07:27:14;;;;;;;2.83;0.75;;;7.10;1.00;;;;;;4943754;28;20035;-77
2024/02/11 07:29:44;;;;;;;0.28;0.28;;;7.10;1.00;;;;;;4934707;29;20396;-76
2024/02/11 07:32:12;;;;;;;0.73;0.73;;;7.10;1.00;;;;;;4935916;29;20409;-79
2024/02/11 07:34:39;;;;;;;0.32;0.32;;;7.10;1.00;;;;;;4942435;29;20027;-77
2024/02/11 07:37:06;;;;;;;0.73;0.65;;;7.20;1.00;;;;;;4924393;29;20039;-76
2024/02/11 07:39:32;;;;;;;0.50;0.50;;;7.20;1.00;;;;;;4949394;29;20134;-77
2024/02/11 07:41:58;;;;;;;0.73;0.60;;;7.20;1.00;;;;;;4949042;28;20031;-77
2024/02/11 07:44:25;;;;;;;3.65;1.63;;;7.20;1.00;;;;;;4935282;29;20059;-77
2024/02/11 07:46:53;;;;;;;0.63;0.63;;;7.30;1.00;;;;;;4907847;29;20040;-77
2024/02/11 07:49:23;;;;;;;0.43;0.43;;;7.20;99.90;;;;;;4925160;29;20058;-76
2024/02/11 07:51:49;;;;;;;0.43;0.43;;;7.30;99.90;;;;;;4940279;29;20035;-78
2024/02/11 07:54:17;;;;;;;0.10;0.10;;;7.30;99.90;;;;;;4935063;29;20392;-76
2024/02/11 07:56:43;;;;;;;1.77;1.52;;;7.30;99.90;;;;;;4919306;29;20055;-77
2024/02/11 07:59:12;;;;;;;1.15;0.88;;;7.30;99.90;;;;;;4920564;29;20504;-76
2024/02/11 08:01:38;;;;;;;1.60;0.90;;;7.40;99.90;;;;;;4917481;29;20036;-77
2024/02/11 08:04:06;;;;;;;1.65;1.00;;;7.30;99.90;;;;;;4926703;29;20062;-79
2024/02/11 08:06:32;;;;;;;4.38;2.17;;;7.30;99.90;;;;;;4940711;29;20042;-78
2024/02/11 08:08:58;;;;;;;0.10;0.10;;;7.40;99.90;;;;;;4930398;29;20052;-78
2024/02/11 08:11:25;;;;;;;0.90;0.90;;;7.40;99.90;;;;;;4912331;29;20050;-78
2024/02/11 08:13:54;;;;;;;0.82;0.82;;;7.40;99.90;;;;;;4948057;28;20047;-79
2024/02/11 08:16:22;;;;;;;0.68;0.68;;;7.40;99.90;;;;;;4943398;29;20477;-78
2024/02/11 08:18:50;;;;;;;0.82;0.82;;;7.40;99.90;;;;;;4939754;28;20047;-79
2024/02/11 08:21:16;;;;;;;0.20;0.20;;;7.40;99.90;;;;;;4917670;29;20048;-80
2024/02/11 08:23:42;;;;;;;0.30;0.30;;;7.50;99.90;;;;;;4938959;29;20035;-79
2024/02/11 08:26:08;;;;;;;0.52;0.52;;;7.60;99.90;;;;;;4934484;29;20035;-79
2024/02/11 08:28:36;;;;;;;1.05;0.95;;;7.60;99.90;;;;;;4930839;29;20074;-79
2024/02/11 08:31:03;;;;;;;1.35;1.25;;;7.70;99.90;;;;;;4945657;29;20598;-79
2024/02/11 08:33:29;;;;;;;0.55;0.50;;;7.70;99.90;;;;;;4951102;29;20066;-80
2024/02/11 08:35:56;;;;;;;1.85;1.10;;;7.80;99.90;;;;;;4935450;29;20468;-78
2024/02/11 08:38:22;;;;;;;3.35;0.95;;;7.80;99.90;;;;;;4941093;28;20055;-80
2024/02/11 08:40:49;;;;;;;0.20;0.20;;;7.90;99.90;;;;;;4939275;29;20039;-79
2024/02/11 08:43:15;;;;;;;0.70;0.70;;;7.90;99.90;;;;;;4935510;29;20055;-79
2024/02/11 08:45:41;;;;;;;4.03;1.83;;;8.00;99.90;;;;;;4949027;28;20484;-80
2024/02/11 08:48:07;;;;;;;1.98;1.85;;;8.10;99.90;;;;;;4926464;29;20055;-80
2024/02/11 08:50:34;;;;;;;2.15;1.95;;;8.20;99.90;;;;;;4907354;29;20043;-80
2024/02/11 08:53:00;;;;;;;0.85;0.55;;;8.20;92.80;;;;;;4936380;29;20484;-80
2024/02/11 08:55:27;;;;;;;0.90;0.88;;;8.20;90.70;;;;;;4935130;29;20031;-80
2024/02/11 08:57:59;;;;;;;0.10;0.10;;;8.20;92.90;;;;;;4919778;29;20040;-79
2024/02/11 09:00:26;;;;;;;2.70;1.50;;;8.20;89.80;;;;;;4941167;29;20471;-80
2024/02/11 09:02:53;;;;;;;0.60;0.60;;;8.20;99.90;;;;;;4937231;29;20063;-80
2024/02/11 09:05:20;;;;;;;1.27;0.82;;;8.30;97.90;;;;;;4947972;29;20368;-79
2024/02/11 09:07:47;;;;;;;0.82;0.82;;;8.20;91.50;;;;;;4945408;29;20050;-78
2024/02/11 09:10:14;;;;;;;0.73;0.73;;;8.30;60.50;;;;;;4934059;29;20043;-81
2024/02/11 09:12:41;;;;;;;0.55;0.52;;;8.30;59.40;;;;;;4922831;29;20047;-79
2024/02/11 09:15:09;;;;;;;0.55;0.55;;;8.30;63.30;;;;;;4941447;29;20511;-79
2024/02/11 09:17:42;;;;;;;0.40;0.20;;;8.40;27.40;;;;;;4930072;29;20039;-79
2024/02/11 09:20:12;;;;;;;1.05;0.98;;;8.40;32.60;;;;;;4918899;29;20042;-80
2024/02/11 09:22:39;;;;;;;0.50;0.43;;;8.50;42.30;;;;;;4916753;29;20047;-79
2024/02/11 09:25:07;;;;;;;3.78;1.52;;;8.60;25.10;;;;;;4939372;29;20039;-79
2024/02/11 09:27:33;;;;;;;0.43;0.43;;;8.70;11.70;;;;;;4947893;29;20050;-80
2024/02/11 09:29:59;;;;;;;0.32;0.32;;;8.80;18.90;;;;;;4927447;29;20062;-79
2024/02/11 09:32:26;;;;;;;0.88;0.88;;;8.90;1.20;;;;;;4940759;29;20031;-79
2024/02/11 09:34:53;;;;;;;0.45;0.35;;;8.90;1.00;;;;;;4943905;28;20035;-79
2024/02/11 09:37:21;;;;;;;0.30;0.30;;;9.00;1.00;;;;;;4941727;29;20419;-79
2024/02/11 09:39:47;;;;;;;1.58;0.88;;;9.00;1.00;;;;;;4945865;29;20393;-80
2024/02/11 09:42:16;;;;;;;0.28;0.28;;;9.00;1.00;;;;;;4930596;29;20039;-80
2024/02/11 09:44:46;;;;;;;0.95;0.95;;;9.10;1.00;;;;;;4917357;29;20059;-80
2024/02/11 09:47:14;;;;;;;1.40;0.93;;;9.00;1.00;;;;;;4926808;29;20400;-80
2024/02/11 09:49:45;;;;;;;0.32;0.32;;;9.00;1.00;;;;;;4921258;29;20134;-80
2024/02/11 09:52:13;;;;;;;2.72;1.05;;;9.00;1.00;;;;;;4931345;29;20052;-81
2024/02/11 09:54:42;;;;;;;1.77;1.00;;;8.90;1.00;;;;;;4937442;29;20483;-81
2024/02/11 09:57:09;;;;;;;0.93;0.85;;;9.00;1.00;;;;;;4941466;29;20338;-84
2024/02/11 09:59:35;;;;;;;0.60;0.50;;;8.90;1.00;;;;;;4954490;29;20042;-79
2024/02/11 10:02:06;;;;;;;13.35;1.55;;;9.00;1.00;;;;;;4937841;29;20027;-80
2024/02/11 10:04:35;;;;;;;1.10;1.00;;;8.90;1.00;;;;;;4947678;29;20039;-81
2024/02/11 10:07:03;;;;;;;1.95;0.30;;;9.00;1.00;;;;;;4938382;29;20463;-81
2024/02/11 10:09:29;;;;;;;0.95;0.85;;;9.00;1.00;;;;;;4951128;28;20239;-80
2024/02/11 10:11:56;;;;;;;1.85;0.95;;;9.10;1.00;;;;;;4935740;29;20074;-82
2024/02/11 10:14:29;;;;;;;0.30;0.30;;;9.30;1.00;;;;;;4945800;29;20038;-82
2024/02/11 10:16:58;;;;;;;3.03;0.90;;;9.30;1.00;;;;;;4937194;29;20039;-80
2024/02/11 10:19:24;;;;;;;0.30;0.30;;;9.40;1.00;;;;;;4934421;29;20047;-81
2024/02/11 10:21:51;;;;;;;2.35;0.57;;;9.40;1.00;;;;;;4952082;28;20054;-81
2024/02/11 10:24:17;;;;;;;0.43;0.43;;;9.50;1.00;;;;;;4934322;29;20043;-82
2024/02/11 10:26:47;;;;;;;0.38;0.38;;;9.60;1.00;;;;;;4943564;29;20061;-82
2024/02/11 10:29:14;;;;;;;0.82;0.82;;;9.70;99.90;;;;;;4935477;29;20048;-82
2024/02/11 10:31:41;;;;;;;0.68;0.63;;;9.70;99.90;;;;;;4948678;28;20027;-81
2024/02/11 10:34:12;;;;;;;0.85;0.43;;;9.80;99.90;;;;;;4921423;29;20054;-81
2024/02/11 10:36:40;;;;;;;0.22;0.20;;;9.80;99.90;;;;;;4945503;29;20058;-82
2024/02/11 10:39:06;;;;;;;1.23;0.68;;;10.00;99.90;;;;;;4943886;28;20532;-81
2024/02/11 10:41:37;;;;;;;6.68;1.95;;;10.10;99.90;;;;;;4928886;29;20050;-83
2024/02/11 10:44:04;;;;;;;0.50;0.50;;;10.20;99.90;;;;;;4937668;29;20066;-81
2024/02/11 10:46:31;;;;;;;0.85;0.73;;;10.50;99.90;;;;;;4937179;29;20051;-82
2024/02/11 10:48:57;;;;;;;0.63;0.63;;;10.60;99.90;;;;;;4929568;29;20054;-82
2024/02/11 10:51:29;;;;;;;0.30;0.30;;;10.50;99.90;;;;;;4931835;29;20048;-83
2024/02/11 10:54:03;;;;;;;6.53;1.08;;;10.50;99.90;;;;;;4940109;29;20391;-82
2024/02/11 10:56:33;;;;;;;0.20;0.20;;;10.60;99.90;;;;;;4947349;29;20050;-83
2024/02/11 10:59:33;;;;;;;0.40;0.30;;;10.50;99.90;;;;;;4932753;29;20047;-81
2024/02/11 11:02:00;;;;;;;0.10;0.10;;;10.40;99.90;;;;;;4917527;29;20051;-82
2024/02/11 11:04:28;;;;;;;1.25;1.15;;;10.20;99.90;;;;;;4939178;29;20043;-83
2024/02/11 11:06:55;;;;;;;1.00;0.85;;;10.20;99.90;;;;;;4949456;29;20039;-83
2024/02/11 11:09:22;;;;;;;0.70;0.70;;;10.00;99.90;;;;;;4922485;29;20048;-83
2024/02/11 11:11:49;;;;;;;0.28;0.28;;;10.00;99.90;;;;;;4921805;29;20099;-84
2024/02/11 11:14:19;;;;;;;0.45;0.45;;;10.10;99.90;;;;;;4942958;29;20043;-84
2024/02/11 11:16:46;;;;;;;0.80;0.50;;;10.00;99.90;;;;;;4942343;29;20038;-82
2024/02/11 11:19:14;;;;;;;1.00;0.77;;;10.10;99.90;;;;;;4916251;29;20408;-83
2024/02/11 11:21:55;;;;;;;0.32;0.32;;;10.40;99.90;;;;;;4938574;29;20380;-83
2024/02/11 11:24:23;;;;;;;0.43;0.40;;;10.50;99.90;;;;;;4948877;29;20233;-83
2024/02/11 11:26:53;;;;;;;0.70;0.60;;;10.80;99.90;;;;;;4938268;29;20054;-83
2024/02/11 11:29:25;;;;;;;1.42;1.33;;;10.90;99.90;;;;;;4937678;29;20059;-83
2024/02/11 11:31:56;;;;;;;0.32;0.28;;;11.10;99.90;;;;;;4950252;29;20047;-83
2024/02/11 11:34:22;;;;;;;1.35;0.40;;;11.10;99.90;;;;;;4935209;29;20051;-79
2024/02/11 11:36:48;;;;;;;3.15;1.00;;;11.10;99.90;;;;;;4936338;29;20047;-83
2024/02/11 11:39:14;;;;;;;2.13;0.60;;;10.90;91.80;;;;;;4915925;29;20051;-81
2024/02/11 11:41:42;;;;;;;0.30;0.30;;;10.80;86.20;;;;;;4948610;29;20043;-82
2024/02/11 11:44:08;;;;;;;0.17;0.17;;;10.70;90.00;;;;;;4956195;28;20039;-82
2024/02/11 11:46:35;;;;;;;1.00;0.47;;;10.60;99.90;;;;;;4940278;29;20039;-83
2024/02/11 11:49:02;;;;;;;0.98;0.57;;;10.40;99.90;;;;;;4937261;29;20058;-83
2024/02/11 11:51:30;;;;;;;0.57;0.57;;;10.30;99.90;;;;;;4921920;29;20043;-81
2024/02/11 11:53:56;;;;;;;2.28;0.90;;;10.40;99.90;;;;;;4946220;29;20035;-83
2024/02/11 11:56:23;;;;;;;0.98;0.75;;;10.50;99.90;;;;;;4937151;29;20380;-83
2024/02/11 11:58:50;;;;;;;0.75;0.75;;;10.50;99.90;;;;;;4922627;29;20058;-81
2024/02/11 12:01:19;;;;;;;3.10;0.60;;;10.40;99.90;;;;;;4937354;29;20051;-85
2024/02/11 12:03:45;;;;;;;0.30;0.30;;;10.50;99.90;;;;;;4908200;29;20047;-82
2024/02/11 12:06:12;;;;;;;0.32;0.30;;;10.50;99.90;;;;;;4951007;29;20030;-83
2024/02/11 12:08:39;;;;;;;1.23;0.70;;;10.50;84.60;;;;;;4923372;29;20043;-83
2024/02/11 12:11:30;;;;;;;0.20;0.20;;;10.60;67.50;;;;;;4929588;28;20062;-83
2024/02/11 12:13:57;;;;;;;0.68;0.68;;;10.70;67.80;;;;;;4945389;29;20094;-79
2024/02/11 12:16:24;;;;;;;0.57;0.57;;;10.70;49.50;;;;;;4934632;29;20039;-78
2024/02/11 12:18:52;;;;;;;1.13;0.52;;;10.70;67.60;;;;;;4942617;29;20036;-82
2024/02/11 12:21:20;;;;;;;0.43;0.40;;;10.70;82.50;;;;;;4921336;29;20354;-82
2024/02/11 12:23:46;;;;;;;2.17;1.27;;;10.60;73.00;;;;;;4938445;29;20039;-82
2024/02/11 12:26:19;;;;;;;1.20;0.95;;;10.50;71.80;;;;;;4937672;29;20039;-82
2024/02/11 12:28:50;;;;;;;0.43;0.43;;;10.40;97.80;;;;;;4935769;29;20047;-81
2024/02/11 12:31:19;;;;;;;0.20;0.20;;;10.50;99.90;;;;;;4937787;29;20043;-81
2024/02/11 12:33:47;;;;;;;0.10;0.10;;;10.50;91.90;;;;;;4943486;28;20027;-81
2024/02/11 12:36:15;;;;;;;1.67;1.08;;;10.60;99.90;;;;;;4913796;29;20048;-80
2024/02/11 12:38:44;;;;;;;1.80;0.73;;;10.60;41.20;;;;;;4946637;29;20031;-81
2024/02/11 12:41:11;;;;;;;0.30;0.30;;;10.60;91.70;;;;;;4920076;29;20376;-81
2024/02/11 12:43:41;;;;;;;0.95;0.68;;;10.60;42.20;;;;;;4936927;29;20043;-82
2024/02/11 12:46:11;;;;;;;0.52;0.52;;;10.50;31.70;;;;;;4931986;29;20050;-82
2024/02/11 12:48:42;;;;;;;0.20;0.20;;;10.50;48.10;;;;;;4937723;29;20036;-81
2024/02/11 12:51:10;;;;;;;0.40;0.38;;;10.60;21.40;;;;;;4933438;29;20032;-80
2024/02/11 12:53:43;;;;;;;0.75;0.75;;;10.60;41.50;;;;;;4934921;29;20047;-80
2024/02/11 12:56:10;;;;;;;0.52;0.50;;;10.60;29.10;;;;;;4931347;29;20055;-80
2024/02/11 12:58:38;;;;;;;1.73;1.13;;;10.50;30.00;;;;;;4912631;29;20047;-82
2024/02/11 13:01:09;;;;;;;1.33;0.77;;;10.40;38.70;;;;;;4943959;29;20392;-82
2024/02/11 13:03:36;;;;;;;0.10;0.10;;;10.40;38.90;;;;;;4933780;29;20047;-82